createdAt,value
2023-02-24T00:02:00.255Z,98063.31
2023-02-24T00:04:29.675Z,98070.28
2023-02-24T00:06:56.776Z,98060.13
2023-02-24T00:09:27.918Z,98060.53
2023-02-24T00:11:55.444Z,98060.97
2023-02-24T00:14:24.933Z,98062.28
2023-02-24T00:16:53.616Z,98060.53
2023-02-24T00:19:26.084Z,98064.06
2023-02-24T00:21:56.716Z,98057.56
2023-02-24T00:24:24.724Z,98053.91
2023-02-24T00:26:57.233Z,98053.13
2023-02-24T00:29:25.066Z,98053.56
2023-02-24T00:31:59.562Z,98044.22
2023-02-24T00:34:27.877Z,98040.72
2023-02-24T00:36:57.620Z,98053.72
2023-02-24T00:39:35.861Z,98059.31
2023-02-24T00:42:06.051Z,98047.25
2023-02-24T00:44:41.037Z,98066.84
2023-02-24T00:47:10.839Z,98065.66
2023-02-24T00:49:43.017Z,98068.25
2023-02-24T00:52:18.212Z,98066.63
2023-02-24T00:54:47.496Z,98061.31
2023-02-24T00:57:21.793Z,98057.66
2023-02-24T00:59:51.898Z,98055.19
2023-02-24T01:02:19.135Z,98057.22
2023-02-24T01:04:50.302Z,98061.06
2023-02-24T01:07:17.616Z,98051.91
2023-02-24T01:09:44.790Z,98052.09
2023-02-24T01:12:32.741Z,98039.38
2023-02-24T01:15:00.179Z,98049.94
2023-02-24T01:17:27.591Z,98029.28
2023-02-24T01:20:00.493Z,98039.47
2023-02-24T01:22:28.585Z,98030.81
2023-02-24T01:24:55.678Z,98026.19
2023-02-24T01:27:22.912Z,98026.28
2023-02-24T01:29:50.730Z,98032.50
2023-02-24T01:32:21.438Z,98028.88
2023-02-24T01:34:52.833Z,98034.00
2023-02-24T01:37:21.100Z,98039.78
2023-02-24T01:39:49.059Z,98042.13
2023-02-24T01:42:22.336Z,98057.09
2023-02-24T01:44:52.147Z,98065.19
2023-02-24T01:47:21.432Z,98052.66
2023-02-24T01:49:52.547Z,98064.31
2023-02-24T01:52:30.737Z,98056.00
2023-02-24T01:55:01.277Z,98060.88
2023-02-24T01:57:31.770Z,98054.47
2023-02-24T02:00:11.350Z,98056.66
2023-02-24T02:02:46.606Z,98049.88
2023-02-24T02:05:15.032Z,98052.31
2023-02-24T02:07:43.657Z,98054.59
2023-02-24T02:10:12.470Z,98062.75
2023-02-24T02:12:44.764Z,98054.81
2023-02-24T02:15:15.645Z,98057.16
2023-02-24T02:18:05.613Z,98062.53
2023-02-24T02:21:09.798Z,98054.53
2023-02-24T02:23:58.193Z,98063.09
2023-02-24T02:26:47.512Z,98055.19
2023-02-24T02:29:23.311Z,98059.44
2023-02-24T02:32:19.247Z,98063.84
2023-02-24T02:34:57.703Z,98063.09
2023-02-24T02:37:34.064Z,98069.50
2023-02-24T02:40:24.420Z,98062.97
2023-02-24T02:42:54.356Z,98065.97
2023-02-24T02:45:24.403Z,98073.56
2023-02-24T02:47:59.622Z,98069.09
2023-02-24T02:51:11.117Z,98074.53
2023-02-24T02:53:49.648Z,98076.22
2023-02-24T02:56:36.815Z,98085.41
2023-02-24T02:59:06.810Z,98081.44
2023-02-24T03:01:38.199Z,98081.91
2023-02-24T03:04:09.614Z,98088.19
2023-02-24T03:06:47.822Z,98092.88
2023-02-24T03:09:25.256Z,98093.91
2023-02-24T03:12:02.379Z,98089.09
2023-02-24T03:14:37.802Z,98081.06
2023-02-24T03:17:13.085Z,98092.13
2023-02-24T03:19:44.006Z,98091.88
2023-02-24T03:22:19.668Z,98099.91
2023-02-24T03:24:46.916Z,98088.75
2023-02-24T03:27:28.406Z,98094.00
2023-02-24T03:30:16.237Z,98094.94
2023-02-24T03:32:56.223Z,98094.28
2023-02-24T03:35:29.318Z,98094.75
2023-02-24T03:37:59.656Z,98098.47
2023-02-24T03:40:29.438Z,98102.00
2023-02-24T03:43:18.270Z,98095.75
2023-02-24T03:45:46.938Z,98113.19
2023-02-24T03:48:14.640Z,98105.56
2023-02-24T03:50:45.099Z,98101.41
2023-02-24T03:53:32.430Z,98104.34
2023-02-24T03:56:28.939Z,98104.78
2023-02-24T03:59:04.463Z,98106.88
2023-02-24T04:01:47.081Z,98100.41
2023-02-24T04:04:31.478Z,98115.31
2023-02-24T04:07:17.831Z,98108.84
2023-02-24T04:10:09.976Z,98103.47
2023-02-24T04:12:52.623Z,98111.47
2023-02-24T04:15:47.699Z,98117.75
2023-02-24T04:18:27.961Z,98115.09
2023-02-24T04:20:59.934Z,98119.09
2023-02-24T04:23:39.513Z,98123.41
2023-02-24T04:26:09.197Z,98115.28
2023-02-24T04:28:36.479Z,98119.84
2023-02-24T04:31:11.650Z,98119.88
2023-02-24T04:33:39.890Z,98123.50
2023-02-24T04:36:09.234Z,98116.84
2023-02-24T04:38:39.793Z,98118.75
2023-02-24T04:41:07.294Z,98129.25
2023-02-24T04:43:36.005Z,98119.22
2023-02-24T04:46:08.053Z,98120.31
2023-02-24T04:48:35.461Z,98108.69
2023-02-24T04:51:02.849Z,98120.50
2023-02-24T04:53:30.434Z,98121.81
2023-02-24T04:55:57.480Z,98122.66
2023-02-24T04:58:29.601Z,98109.97
2023-02-24T05:00:57.339Z,98118.63
2023-02-24T05:03:28.673Z,98112.34
2023-02-24T05:06:00.594Z,98108.84
2023-02-24T05:08:29.753Z,98107.78
2023-02-24T05:10:58.872Z,98111.69
2023-02-24T05:13:32.332Z,98109.78
2023-02-24T05:16:09.454Z,98107.91
2023-02-24T05:18:37.491Z,98114.69
2023-02-24T05:21:36.252Z,98111.88
2023-02-24T05:24:07.349Z,98110.25
2023-02-24T05:26:37.883Z,98111.63
2023-02-24T05:29:07.173Z,98107.41
2023-02-24T05:31:35.611Z,98111.22
2023-02-24T05:34:05.651Z,98119.13
2023-02-24T05:36:41.085Z,98117.44
2023-02-24T05:39:12.653Z,98127.34
2023-02-24T05:41:42.759Z,98123.09
2023-02-24T05:44:23.578Z,98126.25
2023-02-24T05:46:57.624Z,98127.97
2023-02-24T05:49:29.644Z,98135.94
2023-02-24T05:52:01.123Z,98129.66
2023-02-24T05:54:37.247Z,98138.31
2023-02-24T05:57:09.617Z,98137.44
2023-02-24T05:59:37.044Z,98141.50
2023-02-24T06:02:07.890Z,98149.38
2023-02-24T06:04:41.093Z,98148.94
2023-02-24T06:07:19.820Z,98148.22
2023-02-24T06:09:50.606Z,98153.66
2023-02-24T06:12:19.266Z,98142.09
2023-02-24T06:14:46.521Z,98140.97
2023-02-24T06:17:19.099Z,98146.03
2023-02-24T06:19:50.573Z,98144.22
2023-02-24T06:22:20.169Z,98141.66
2023-02-24T06:24:49.520Z,98136.44
2023-02-24T06:27:19.912Z,98153.22
2023-02-24T06:29:51.660Z,98144.00
2023-02-24T06:32:21.441Z,98156.53
2023-02-24T06:34:48.473Z,98154.91
2023-02-24T06:37:17.164Z,98156.97
2023-02-24T06:39:44.486Z,98147.66
2023-02-24T06:42:12.839Z,98139.06
2023-02-24T06:44:41.679Z,98141.41
2023-02-24T06:47:13.424Z,98144.38
2023-02-24T06:49:41.829Z,98147.38
2023-02-24T06:52:08.942Z,98142.25
2023-02-24T06:54:36.383Z,98148.72
2023-02-24T06:57:04.199Z,98146.75
2023-02-24T06:59:32.421Z,98142.81
2023-02-24T07:02:02.285Z,98135.78
2023-02-24T07:04:29.834Z,98148.16
2023-02-24T07:07:04.152Z,98144.72
2023-02-24T07:09:32.279Z,98138.88
2023-02-24T07:12:02.876Z,98149.41
2023-02-24T07:14:33.959Z,98149.41
2023-02-24T07:17:01.375Z,98142.03
2023-02-24T07:19:32.559Z,98140.81
2023-02-24T07:22:03.811Z,98142.31
2023-02-24T07:24:36.332Z,98135.72
2023-02-24T07:27:11.950Z,98136.91
2023-02-24T07:29:39.953Z,98129.06
2023-02-24T07:32:09.307Z,98136.19
2023-02-24T07:34:40.861Z,98130.25
2023-02-24T07:37:09.686Z,98124.31
2023-02-24T07:39:39.714Z,98119.03
2023-02-24T07:42:09.374Z,98127.16
2023-02-24T07:44:47.048Z,98127.00
2023-02-24T07:47:16.253Z,98132.81
2023-02-24T07:49:43.968Z,98125.94
2023-02-24T07:52:11.891Z,98118.03
2023-02-24T07:54:39.653Z,98124.56
2023-02-24T07:57:06.914Z,98125.53
2023-02-24T07:59:38.302Z,98121.72
2023-02-24T08:02:07.986Z,98113.16
2023-02-24T08:04:36.547Z,98112.94
2023-02-24T08:07:04.424Z,98106.72
2023-02-24T08:09:47.129Z,98105.22
2023-02-24T08:12:22.123Z,98100.38
2023-02-24T08:14:52.115Z,98089.69
2023-02-24T08:17:26.759Z,98093.25
2023-02-24T08:20:28.871Z,98084.91
2023-02-24T08:22:56.739Z,98083.97
2023-02-24T08:25:38.499Z,98086.06
2023-02-24T08:28:11.911Z,98084.88
2023-02-24T08:30:46.007Z,98081.78
2023-02-24T08:33:19.264Z,98070.84
2023-02-24T08:35:51.929Z,98069.09
2023-02-24T08:38:21.097Z,98065.78
2023-02-24T08:40:51.840Z,98072.25
2023-02-24T08:43:30.795Z,98065.72
2023-02-24T08:46:05.548Z,98062.25
2023-02-24T08:48:42.569Z,98068.75
2023-02-24T08:51:35.275Z,98063.97
2023-02-24T08:54:11.529Z,98058.00
2023-02-24T08:56:43.965Z,98060.66
2023-02-24T08:59:29.488Z,98059.63
2023-02-24T09:02:18.103Z,98060.69
2023-02-24T09:04:47.350Z,98051.53
2023-02-24T09:07:26.258Z,98051.56
2023-02-24T09:09:56.639Z,98058.41
2023-02-24T09:12:26.529Z,98050.91
2023-02-24T09:15:01.482Z,98047.66
2023-02-24T09:17:59.352Z,98046.97
2023-02-24T09:20:45.310Z,98044.44
2023-02-24T09:23:20.448Z,98041.38
2023-02-24T09:25:50.920Z,98040.75
2023-02-24T09:28:25.103Z,98035.81
2023-02-24T09:30:54.279Z,98031.28
2023-02-24T09:33:23.205Z,98041.75
2023-02-24T09:36:10.204Z,98028.50
2023-02-24T09:39:01.738Z,98035.50
2023-02-24T09:41:54.008Z,98028.25
2023-02-24T09:44:34.347Z,98030.16
2023-02-24T09:47:19.952Z,98029.66
2023-02-24T09:50:14.397Z,98021.25
2023-02-24T09:52:41.835Z,98021.28
2023-02-24T09:55:25.318Z,98022.53
2023-02-24T09:58:27.036Z,98015.78
2023-02-24T10:01:21.547Z,98017.59
2023-02-24T10:04:21.246Z,98013.22
2023-02-24T10:06:59.450Z,98011.84
2023-02-24T10:09:34.645Z,98011.22
2023-02-24T10:12:34.662Z,98002.38
2023-02-24T10:15:20.003Z,97993.78
2023-02-24T10:17:57.191Z,97990.19
2023-02-24T10:20:40.137Z,97987.22
2023-02-24T10:23:24.809Z,97977.09
2023-02-24T10:25:57.276Z,97975.53
2023-02-24T10:28:24.574Z,97970.44
2023-02-24T10:31:26.425Z,97967.88
2023-02-24T10:34:01.327Z,97956.63
2023-02-24T10:36:35.957Z,97950.00
2023-02-24T10:39:26.036Z,97948.28
2023-02-24T10:42:15.845Z,97943.84
2023-02-24T10:45:01.926Z,97932.97
2023-02-24T10:47:31.558Z,97930.97
2023-02-24T10:50:07.189Z,97933.22
2023-02-24T10:53:01.168Z,97930.59
2023-02-24T10:55:43.684Z,97913.94
2023-02-24T10:58:28.976Z,97912.38
2023-02-24T11:01:13.826Z,97901.31
2023-02-24T11:04:02.435Z,97911.06
2023-02-24T11:06:41.727Z,97905.16
2023-02-24T11:09:29.222Z,97903.91
2023-02-24T11:12:19.424Z,97894.44
2023-02-24T11:15:12.750Z,97883.53
2023-02-24T11:18:09.290Z,97872.72
2023-02-24T11:20:49.007Z,97874.22
2023-02-24T11:23:28.273Z,97859.09
2023-02-24T11:26:01.072Z,97861.78
2023-02-24T11:28:33.958Z,97857.13
2023-02-24T11:31:25.838Z,97854.41
2023-02-24T11:34:29.040Z,97839.56
2023-02-24T11:37:15.228Z,97841.81
2023-02-24T11:39:45.804Z,97829.69
2023-02-24T11:42:19.688Z,97829.66
2023-02-24T11:45:02.891Z,97824.69
2023-02-24T11:47:37.382Z,97823.25
2023-02-24T11:50:32.217Z,97809.88
2023-02-24T11:53:04.003Z,97803.69
2023-02-24T11:55:47.229Z,97798.81
2023-02-24T11:58:41.600Z,97791.41
2023-02-24T12:01:30.169Z,97793.03
2023-02-24T12:04:06.890Z,97781.69
2023-02-24T12:06:59.730Z,97778.28
2023-02-24T12:09:36.210Z,97777.97
2023-02-24T12:12:10.031Z,97763.66
2023-02-24T12:14:53.262Z,97759.03
2023-02-24T12:17:37.219Z,97762.41
2023-02-24T12:20:20.251Z,97754.75
2023-02-24T12:22:58.294Z,97742.00
2023-02-24T12:25:35.209Z,97735.22
2023-02-24T12:28:11.596Z,97737.06
2023-02-24T12:31:09.241Z,97740.75
2023-02-24T12:33:44.610Z,97733.22
2023-02-24T12:36:19.823Z,97720.16
2023-02-24T12:38:50.993Z,97715.69
2023-02-24T12:41:39.929Z,97720.81
2023-02-24T12:44:52.330Z,97716.31
2023-02-24T12:47:46.496Z,97711.59
2023-02-24T12:50:46.190Z,97705.25
2023-02-24T12:53:46.297Z,97715.16
2023-02-24T12:56:30.815Z,97706.19
2023-02-24T12:59:05.662Z,97703.34
2023-02-24T13:01:45.482Z,97705.13
2023-02-24T13:04:41.998Z,97702.94
2023-02-24T13:07:29.860Z,97702.94
2023-02-24T13:10:28.409Z,97696.78
2023-02-24T13:12:59.182Z,97694.53
2023-02-24T13:15:31.662Z,97693.09
2023-02-24T13:17:59.745Z,97694.81
2023-02-24T13:20:37.347Z,97685.16
2023-02-24T13:23:21.218Z,97679.16
2023-02-24T13:25:54.297Z,97668.69
2023-02-24T13:28:33.601Z,97674.34
2023-02-24T13:31:07.868Z,97669.97
2023-02-24T13:33:40.669Z,97677.44
2023-02-24T13:36:18.094Z,97664.22
2023-02-24T13:38:49.091Z,97673.72
2023-02-24T13:41:28.889Z,97671.84
2023-02-24T13:44:18.648Z,97666.41
2023-02-24T13:47:07.641Z,97668.53
2023-02-24T13:50:10.819Z,97670.34
2023-02-24T13:52:51.096Z,97656.03
2023-02-24T13:55:24.598Z,97655.22
2023-02-24T13:58:20.479Z,97647.00
2023-02-24T14:00:56.088Z,97638.31
2023-02-24T14:03:27.184Z,97646.91
2023-02-24T14:05:55.529Z,97643.75
2023-02-24T14:08:31.459Z,97640.81
2023-02-24T14:11:01.810Z,97635.28
2023-02-24T14:13:34.619Z,97636.72
2023-02-24T14:16:08.142Z,97634.50
2023-02-24T14:18:37.152Z,97634.72
2023-02-24T14:21:04.464Z,97631.47
2023-02-24T14:23:34.337Z,97627.22
2023-02-24T14:26:05.180Z,97634.59
2023-02-24T14:28:40.469Z,97632.91
2023-02-24T14:31:14.151Z,97637.25
2023-02-24T14:33:44.296Z,97625.38
2023-02-24T14:36:19.807Z,97628.25
2023-02-24T14:38:47.471Z,97626.47
2023-02-24T14:41:26.038Z,97631.63
2023-02-24T14:43:54.415Z,97625.41
2023-02-24T14:46:21.683Z,97630.31
2023-02-24T14:48:55.237Z,97619.66
2023-02-24T14:51:34.198Z,97621.22
2023-02-24T14:54:06.689Z,97625.91
2023-02-24T14:56:37.051Z,97627.72
2023-02-24T14:59:18.595Z,97626.75
2023-02-24T15:01:52.564Z,97617.81
2023-02-24T15:04:29.081Z,97625.63
2023-02-24T15:06:56.248Z,97613.44
2023-02-24T15:09:28.964Z,97614.25
2023-02-24T15:11:56.723Z,97615.66
2023-02-24T15:14:27.919Z,97608.28
2023-02-24T15:17:00.323Z,97620.38
2023-02-24T15:19:44.531Z,97618.59
2023-02-24T15:22:20.797Z,97616.47
2023-02-24T15:24:48.784Z,97621.75
2023-02-24T15:27:15.823Z,97626.56
2023-02-24T15:29:44.787Z,97629.03
2023-02-24T15:32:19.010Z,97619.78
2023-02-24T15:34:48.676Z,97621.47
2023-02-24T15:37:23.476Z,97618.69
2023-02-24T15:39:56.729Z,97610.44
2023-02-24T15:42:28.886Z,97614.94
2023-02-24T15:44:59.159Z,97619.84
2023-02-24T15:47:40.604Z,97613.47
2023-02-24T15:50:10.577Z,97616.09
2023-02-24T15:52:38.122Z,97604.84
2023-02-24T15:55:07.960Z,97607.75
2023-02-24T15:57:35.150Z,97621.66
2023-02-24T16:00:13.421Z,97608.94
2023-02-24T16:02:41.497Z,97612.69
2023-02-24T16:05:13.816Z,97610.06
2023-02-24T16:07:43.577Z,97614.47
2023-02-24T16:10:21.764Z,97618.28
2023-02-24T16:12:53.743Z,97617.75
2023-02-24T16:15:25.640Z,97622.94
2023-02-24T16:17:53.566Z,97622.03
2023-02-24T16:20:31.758Z,97627.81
2023-02-24T16:23:01.925Z,97625.97
2023-02-24T16:25:38.636Z,97631.56
2023-02-24T16:28:05.799Z,97630.06
2023-02-24T16:30:33.526Z,97632.28
2023-02-24T16:33:01.877Z,97623.00
2023-02-24T16:35:29.266Z,97648.41
2023-02-24T16:37:56.409Z,97642.69
2023-02-24T16:40:31.031Z,97654.84
2023-02-24T16:42:58.389Z,97654.16
2023-02-24T16:45:32.745Z,97662.25
2023-02-24T16:48:07.536Z,97660.88
2023-02-24T16:50:39.370Z,97665.41
2023-02-24T16:53:08.344Z,97672.97
2023-02-24T16:55:35.733Z,97660.59
2023-02-24T16:58:02.779Z,97659.84
2023-02-24T17:00:29.868Z,97672.19
2023-02-24T17:02:57.127Z,97671.75
2023-02-24T17:05:26.804Z,97676.75
2023-02-24T17:07:56.179Z,97678.56
2023-02-24T17:10:25.571Z,97681.00
2023-02-24T17:12:53.055Z,97675.50
2023-02-24T17:15:22.799Z,97688.19
2023-02-24T17:17:50.788Z,97691.22
2023-02-24T17:20:20.718Z,97695.94
2023-02-24T17:22:48.384Z,97695.84
2023-02-24T17:25:19.281Z,97695.75
2023-02-24T17:27:46.563Z,97693.41
2023-02-24T17:30:16.405Z,97681.81
2023-02-24T17:32:44.333Z,97690.22
2023-02-24T17:35:11.512Z,97703.72
2023-02-24T17:37:38.977Z,97702.09
2023-02-24T17:40:06.904Z,97694.47
2023-02-24T17:42:34.207Z,97700.47
2023-02-24T17:45:01.963Z,97704.06
2023-02-24T17:47:30.821Z,97708.44
2023-02-24T17:49:58.403Z,97709.06
2023-02-24T17:52:26.104Z,97716.03
2023-02-24T17:54:53.160Z,97706.56
2023-02-24T17:57:20.294Z,97710.25
2023-02-24T17:59:47.520Z,97707.06
2023-02-24T18:02:17.261Z,97703.56
2023-02-24T18:04:44.885Z,97705.56
2023-02-24T18:07:16.044Z,97708.94
2023-02-24T18:09:43.581Z,97713.53
2023-02-24T18:12:10.624Z,97717.66
2023-02-24T18:14:40.781Z,97712.84
2023-02-24T18:17:08.170Z,97716.09
2023-02-24T18:19:35.933Z,97710.19
2023-02-24T18:22:03.472Z,97707.09
2023-02-24T18:24:30.776Z,97707.69
2023-02-24T18:26:57.752Z,97712.81
2023-02-24T18:29:25.165Z,97713.94
2023-02-24T18:31:52.377Z,97715.38
2023-02-24T18:34:19.650Z,97713.69
2023-02-24T18:36:47.497Z,97717.22
2023-02-24T18:39:17.528Z,97725.16
2023-02-24T18:41:44.872Z,97716.69
2023-02-24T18:44:12.838Z,97713.16
2023-02-24T18:46:40.393Z,97715.16
2023-02-24T18:49:09.136Z,97711.72
2023-02-24T18:51:36.602Z,97714.56
2023-02-24T18:54:03.806Z,97713.44
2023-02-24T18:56:34.435Z,97725.50
2023-02-24T18:59:02.852Z,97726.75
2023-02-24T19:01:39.907Z,97730.03
2023-02-24T19:04:08.480Z,97728.50
2023-02-24T19:06:36.440Z,97723.94
2023-02-24T19:09:12.305Z,97727.63
2023-02-24T19:11:41.611Z,97726.22
2023-02-24T19:14:12.133Z,97737.84
2023-02-24T19:16:40.646Z,97728.03
2023-02-24T19:19:07.844Z,97727.59
2023-02-24T19:21:35.230Z,97739.25
2023-02-24T19:24:04.175Z,97741.75
2023-02-24T19:26:31.554Z,97742.72
2023-02-24T19:28:59.594Z,97743.84
2023-02-24T19:31:29.485Z,97746.53
2023-02-24T19:34:03.577Z,97753.75
2023-02-24T19:36:33.364Z,97751.59
2023-02-24T19:39:00.939Z,97756.72
2023-02-24T19:41:28.356Z,97760.63
2023-02-24T19:43:56.095Z,97753.56
2023-02-24T19:46:23.690Z,97750.13
2023-02-24T19:48:51.343Z,97748.03
2023-02-24T19:51:22.335Z,97757.38
2023-02-24T19:53:56.476Z,97761.19
2023-02-24T19:56:26.233Z,97761.00
2023-02-24T19:58:54.820Z,97762.59
2023-02-24T20:01:23.706Z,97758.63
2023-02-24T20:03:55.335Z,97751.66
2023-02-24T20:06:32.213Z,97751.16
2023-02-24T20:09:00.464Z,97755.50
2023-02-24T20:11:33.114Z,97757.22
2023-02-24T20:14:00.199Z,97756.38
2023-02-24T20:16:32.189Z,97755.81
2023-02-24T20:19:00.224Z,97753.13
2023-02-24T20:21:28.571Z,97747.75
2023-02-24T20:24:02.777Z,97748.59
2023-02-24T20:26:30.826Z,97752.41
2023-02-24T20:29:00.454Z,97755.81
2023-02-24T20:31:27.871Z,97754.53
2023-02-24T20:33:56.644Z,97763.69
2023-02-24T20:36:27.177Z,97749.81
2023-02-24T20:38:55.516Z,97756.75
2023-02-24T20:41:22.898Z,97746.09
2023-02-24T20:43:51.101Z,97749.53
2023-02-24T20:46:18.118Z,97748.19
2023-02-24T20:48:45.867Z,97746.31
2023-02-24T20:51:13.111Z,97742.09
2023-02-24T20:53:56.072Z,97734.53
2023-02-24T20:56:26.687Z,97752.44
2023-02-24T20:59:00.263Z,97748.56
2023-02-24T21:01:28.177Z,97751.38
2023-02-24T21:03:55.535Z,97741.53
2023-02-24T21:06:25.097Z,97755.34
2023-02-24T21:08:53.521Z,97752.25
2023-02-24T21:11:21.452Z,97740.44
2023-02-24T21:13:50.806Z,97750.97
2023-02-24T21:16:19.945Z,97760.28
2023-02-24T21:18:49.109Z,97746.38
2023-02-24T21:21:17.831Z,97764.59
2023-02-24T21:23:44.914Z,97766.06
2023-02-24T21:26:13.269Z,97769.88
2023-02-24T21:28:40.830Z,97764.25
2023-02-24T21:31:13.807Z,97766.09
2023-02-24T21:33:41.129Z,97760.88
2023-02-24T21:36:11.497Z,97765.28
2023-02-24T21:38:38.766Z,97759.47
2023-02-24T21:41:08.339Z,97757.88
2023-02-24T21:43:35.791Z,97759.56
2023-02-24T21:46:05.701Z,97768.06
2023-02-24T21:48:33.744Z,97756.75
2023-02-24T21:51:04.055Z,97747.97
2023-02-24T21:53:33.907Z,97750.94
2023-02-24T21:56:11.291Z,97746.66
2023-02-24T21:58:39.891Z,97751.31
2023-02-24T22:01:12.526Z,97751.31
2023-02-24T22:03:40.497Z,97752.41
2023-02-24T22:06:11.085Z,97749.22
2023-02-24T22:08:43.380Z,97758.06
2023-02-24T22:11:12.876Z,97759.75
2023-02-24T22:13:40.789Z,97770.72
2023-02-24T22:16:13.979Z,97766.00
2023-02-24T22:18:41.401Z,97770.97
2023-02-24T22:21:11.561Z,97762.72
2023-02-24T22:23:39.107Z,97766.22
2023-02-24T22:26:08.730Z,97766.44
2023-02-24T22:28:38.563Z,97743.91
2023-02-24T22:31:06.858Z,97756.47
2023-02-24T22:33:36.726Z,97757.56
2023-02-24T22:36:05.762Z,97755.47
2023-02-24T22:38:34.150Z,97754.50
2023-02-24T22:41:04.035Z,97743.19
2023-02-24T22:43:31.553Z,97746.25
2023-02-24T22:46:01.320Z,97742.38
2023-02-24T22:48:30.215Z,97740.03
2023-02-24T22:50:58.875Z,97736.03
2023-02-24T22:53:26.132Z,97733.00
2023-02-24T22:55:53.730Z,97733.59
2023-02-24T22:58:22.086Z,97731.66
2023-02-24T23:00:49.211Z,97731.25
2023-02-24T23:03:19.928Z,97736.34
2023-02-24T23:06:13.596Z,97720.53
2023-02-24T23:08:42.369Z,97737.81
2023-02-24T23:11:14.900Z,97727.84
2023-02-24T23:13:44.868Z,97731.25
2023-02-24T23:16:15.623Z,97735.63
2023-02-24T23:18:48.750Z,97735.66
2023-02-24T23:21:16.350Z,97723.97
2023-02-24T23:23:43.480Z,97724.69
2023-02-24T23:26:11.655Z,97730.38
2023-02-24T23:28:39.951Z,97713.72
2023-02-24T23:31:08.113Z,97725.19
2023-02-24T23:33:35.478Z,97726.44
2023-02-24T23:36:05.717Z,97711.31
2023-02-24T23:38:33.564Z,97720.81
2023-02-24T23:41:01.239Z,97710.69
2023-02-24T23:43:28.542Z,97718.59
2023-02-24T23:45:56.071Z,97719.31
2023-02-24T23:48:24.350Z,97720.31
2023-02-24T23:50:55.711Z,97722.28
2023-02-24T23:53:25.815Z,97709.44
2023-02-24T23:55:53.584Z,97708.56
2023-02-24T23:58:20.994Z,97702.84
